sensor_id;sensor_type;location;lat;lon;timestamp;P1;durP1;ratioP1;P2;durP2;ratioP2
3843;SDS011;1937;51.444;6.484;2023-05-19T00:01:07;34.93;;;6.87;;
3843;SDS011;1937;51.444;6.484;2023-05-19T00:03:34;34.43;;;7.10;;
3843;SDS011;1937;51.444;6.484;2023-05-19T00:06:04;33.23;;;6.03;;
3843;SDS011;1937;51.444;6.484;2023-05-19T00:08:33;32.80;;;6.00;;
3843;SDS011;1937;51.444;6.484;2023-05-19T00:11:03;36.57;;;6.20;;
3843;SDS011;1937;51.444;6.484;2023-05-19T00:13:31;41.30;;;6.50;;
3843;SDS011;1937;51.444;6.484;2023-05-19T00:15:58;37.10;;;6.47;;
3843;SDS011;1937;51.444;6.484;2023-05-19T00:18:26;34.77;;;6.40;;
3843;SDS011;1937;51.444;6.484;2023-05-19T00:20:53;34.90;;;6.70;;
3843;SDS011;1937;51.444;6.484;2023-05-19T00:23:20;37.47;;;6.77;;
3843;SDS011;1937;51.444;6.484;2023-05-19T00:25:48;38.00;;;6.50;;
3843;SDS011;1937;51.444;6.484;2023-05-19T00:28:16;34.40;;;6.33;;
3843;SDS011;1937;51.444;6.484;2023-05-19T00:30:42;33.70;;;8.57;;
3843;SDS011;1937;51.444;6.484;2023-05-19T00:33:09;36.97;;;6.30;;
3843;SDS011;1937;51.444;6.484;2023-05-19T00:35:36;35.73;;;6.40;;
3843;SDS011;1937;51.444;6.484;2023-05-19T00:38:04;36.10;;;6.50;;
3843;SDS011;1937;51.444;6.484;2023-05-19T00:40:31;36.37;;;8.30;;
3843;SDS011;1937;51.444;6.484;2023-05-19T00:43:01;35.00;;;6.07;;
3843;SDS011;1937;51.444;6.484;2023-05-19T00:45:29;34.87;;;7.27;;
3843;SDS011;1937;51.444;6.484;2023-05-19T00:47:56;53.23;;;7.40;;
3843;SDS011;1937;51.444;6.484;2023-05-19T00:50:22;33.77;;;6.30;;
3843;SDS011;1937;51.444;6.484;2023-05-19T00:52:49;33.10;;;6.63;;
3843;SDS011;1937;51.444;6.484;2023-05-19T00:55:16;34.43;;;6.37;;
3843;SDS011;1937;51.444;6.484;2023-05-19T00:57:43;36.20;;;6.77;;
3843;SDS011;1937;51.444;6.484;2023-05-19T01:00:13;33.40;;;6.90;;
3843;SDS011;1937;51.444;6.484;2023-05-19T01:02:40;35.77;;;7.00;;
3843;SDS011;1937;51.444;6.484;2023-05-19T01:05:08;41.10;;;7.63;;
3843;SDS011;1937;51.444;6.484;2023-05-19T01:07:35;34.07;;;7.57;;
3843;SDS011;1937;51.444;6.484;2023-05-19T01:10:03;32.13;;;7.60;;
3843;SDS011;1937;51.444;6.484;2023-05-19T01:12:31;36.13;;;7.80;;
3843;SDS011;1937;51.444;6.484;2023-05-19T01:14:58;44.33;;;7.77;;
3843;SDS011;1937;51.444;6.484;2023-05-19T01:17:28;29.37;;;7.83;;
3843;SDS011;1937;51.444;6.484;2023-05-19T01:20:01;31.90;;;7.23;;
3843;SDS011;1937;51.444;6.484;2023-05-19T01:22:39;33.90;;;8.23;;
3843;SDS011;1937;51.444;6.484;2023-05-19T01:25:33;32.87;;;7.60;;
3843;SDS011;1937;51.444;6.484;2023-05-19T01:28:22;45.93;;;8.13;;
3843;SDS011;1937;51.444;6.484;2023-05-19T01:30:59;34.50;;;7.30;;
3843;SDS011;1937;51.444;6.484;2023-05-19T01:33:27;31.97;;;7.37;;
3843;SDS011;1937;51.444;6.484;2023-05-19T01:35:57;32.07;;;7.83;;
3843;SDS011;1937;51.444;6.484;2023-05-19T01:38:24;36.43;;;7.60;;
3843;SDS011;1937;51.444;6.484;2023-05-19T01:40:55;34.30;;;6.90;;
3843;SDS011;1937;51.444;6.484;2023-05-19T01:43:23;30.90;;;7.30;;
3843;SDS011;1937;51.444;6.484;2023-05-19T01:45:51;37.33;;;7.67;;
3843;SDS011;1937;51.444;6.484;2023-05-19T01:48:20;35.87;;;7.40;;
3843;SDS011;1937;51.444;6.484;2023-05-19T01:50:48;34.43;;;7.73;;
3843;SDS011;1937;51.444;6.484;2023-05-19T01:53:14;31.93;;;7.40;;
3843;SDS011;1937;51.444;6.484;2023-05-19T01:55:42;31.67;;;6.70;;
3843;SDS011;1937;51.444;6.484;2023-05-19T01:58:13;39.57;;;8.97;;
3843;SDS011;1937;51.444;6.484;2023-05-19T02:00:47;34.40;;;7.67;;
3843;SDS011;1937;51.444;6.484;2023-05-19T02:03:24;44.67;;;9.70;;
3843;SDS011;1937;51.444;6.484;2023-05-19T02:05:58;35.20;;;7.80;;
3843;SDS011;1937;51.444;6.484;2023-05-19T02:08:38;38.00;;;9.73;;
3843;SDS011;1937;51.444;6.484;2023-05-19T02:11:10;35.60;;;7.97;;
3843;SDS011;1937;51.444;6.484;2023-05-19T02:13:45;33.50;;;7.07;;
3843;SDS011;1937;51.444;6.484;2023-05-19T02:16:18;35.50;;;7.47;;
3843;SDS011;1937;51.444;6.484;2023-05-19T02:18:52;35.13;;;7.73;;
3843;SDS011;1937;51.444;6.484;2023-05-19T02:21:20;35.43;;;7.57;;
3843;SDS011;1937;51.444;6.484;2023-05-19T02:23:47;37.13;;;8.40;;
3843;SDS011;1937;51.444;6.484;2023-05-19T02:26:14;43.80;;;7.30;;
3843;SDS011;1937;51.444;6.484;2023-05-19T02:28:40;38.37;;;8.30;;
3843;SDS011;1937;51.444;6.484;2023-05-19T02:31:07;36.87;;;8.30;;
3843;SDS011;1937;51.444;6.484;2023-05-19T02:33:34;39.10;;;7.30;;
3843;SDS011;1937;51.444;6.484;2023-05-19T02:36:03;39.03;;;7.20;;
3843;SDS011;1937;51.444;6.484;2023-05-19T02:38:30;34.20;;;7.80;;
3843;SDS011;1937;51.444;6.484;2023-05-19T02:40:56;35.83;;;7.20;;
3843;SDS011;1937;51.444;6.484;2023-05-19T02:43:23;41.60;;;7.87;;
3843;SDS011;1937;51.444;6.484;2023-05-19T02:45:49;33.77;;;7.73;;
3843;SDS011;1937;51.444;6.484;2023-05-19T02:48:16;37.90;;;7.37;;
3843;SDS011;1937;51.444;6.484;2023-05-19T02:50:43;35.57;;;8.17;;
3843;SDS011;1937;51.444;6.484;2023-05-19T02:53:11;41.13;;;8.60;;
3843;SDS011;1937;51.444;6.484;2023-05-19T02:55:38;38.53;;;8.93;;
3843;SDS011;1937;51.444;6.484;2023-05-19T02:58:04;34.23;;;8.00;;
3843;SDS011;1937;51.444;6.484;2023-05-19T03:00:31;39.67;;;9.43;;
3843;SDS011;1937;51.444;6.484;2023-05-19T03:02:58;35.00;;;8.50;;
3843;SDS011;1937;51.444;6.484;2023-05-19T03:05:26;41.07;;;9.20;;
3843;SDS011;1937;51.444;6.484;2023-05-19T03:07:54;38.37;;;8.30;;
3843;SDS011;1937;51.444;6.484;2023-05-19T03:10:22;37.03;;;8.30;;
3843;SDS011;1937;51.444;6.484;2023-05-19T03:12:48;36.20;;;9.03;;
3843;SDS011;1937;51.444;6.484;2023-05-19T03:15:15;34.27;;;8.60;;
3843;SDS011;1937;51.444;6.484;2023-05-19T03:17:42;42.43;;;10.70;;
3843;SDS011;1937;51.444;6.484;2023-05-19T03:20:09;39.60;;;10.40;;
3843;SDS011;1937;51.444;6.484;2023-05-19T03:22:37;38.93;;;8.40;;
3843;SDS011;1937;51.444;6.484;2023-05-19T03:25:03;39.47;;;10.90;;
3843;SDS011;1937;51.444;6.484;2023-05-19T03:27:32;37.13;;;8.60;;
3843;SDS011;1937;51.444;6.484;2023-05-19T03:29:58;39.83;;;8.60;;
3843;SDS011;1937;51.444;6.484;2023-05-19T03:32:25;39.67;;;7.33;;
3843;SDS011;1937;51.444;6.484;2023-05-19T03:34:52;38.90;;;8.73;;
3843;SDS011;1937;51.444;6.484;2023-05-19T03:37:18;37.27;;;9.13;;
3843;SDS011;1937;51.444;6.484;2023-05-19T03:39:45;36.50;;;8.27;;
3843;SDS011;1937;51.444;6.484;2023-05-19T03:42:11;40.17;;;8.20;;
3843;SDS011;1937;51.444;6.484;2023-05-19T03:44:40;43.23;;;8.13;;
3843;SDS011;1937;51.444;6.484;2023-05-19T03:47:06;42.03;;;8.33;;
3843;SDS011;1937;51.444;6.484;2023-05-19T03:49:33;44.13;;;10.10;;
3843;SDS011;1937;51.444;6.484;2023-05-19T03:52:00;37.37;;;8.93;;
3843;SDS011;1937;51.444;6.484;2023-05-19T03:54:27;36.23;;;8.83;;
3843;SDS011;1937;51.444;6.484;2023-05-19T03:56:54;38.20;;;8.97;;
3843;SDS011;1937;51.444;6.484;2023-05-19T03:59:20;39.17;;;9.70;;
3843;SDS011;1937;51.444;6.484;2023-05-19T04:01:49;44.40;;;9.93;;
3843;SDS011;1937;51.444;6.484;2023-05-19T04:04:17;41.40;;;9.83;;
3843;SDS011;1937;51.444;6.484;2023-05-19T04:06:44;38.53;;;8.23;;
3843;SDS011;1937;51.444;6.484;2023-05-19T04:09:11;41.17;;;9.33;;
3843;SDS011;1937;51.444;6.484;2023-05-19T04:11:38;41.63;;;8.97;;
3843;SDS011;1937;51.444;6.484;2023-05-19T04:14:05;37.00;;;8.47;;
3843;SDS011;1937;51.444;6.484;2023-05-19T04:16:32;38.50;;;9.83;;
3843;SDS011;1937;51.444;6.484;2023-05-19T04:19:01;41.73;;;9.00;;
3843;SDS011;1937;51.444;6.484;2023-05-19T04:21:28;53.03;;;10.07;;
3843;SDS011;1937;51.444;6.484;2023-05-19T04:23:54;38.20;;;9.30;;
3843;SDS011;1937;51.444;6.484;2023-05-19T04:26:22;58.03;;;11.33;;
3843;SDS011;1937;51.444;6.484;2023-05-19T04:28:50;40.60;;;8.27;;
3843;SDS011;1937;51.444;6.484;2023-05-19T04:31:17;45.63;;;9.40;;
3843;SDS011;1937;51.444;6.484;2023-05-19T04:33:45;40.63;;;8.63;;
3843;SDS011;1937;51.444;6.484;2023-05-19T04:36:15;39.53;;;9.13;;
3843;SDS011;1937;51.444;6.484;2023-05-19T04:38:45;44.60;;;9.07;;
3843;SDS011;1937;51.444;6.484;2023-05-19T04:41:12;44.73;;;9.10;;
3843;SDS011;1937;51.444;6.484;2023-05-19T04:43:40;40.43;;;8.40;;
3843;SDS011;1937;51.444;6.484;2023-05-19T04:46:08;43.10;;;9.70;;
3843;SDS011;1937;51.444;6.484;2023-05-19T04:48:36;42.90;;;10.43;;
3843;SDS011;1937;51.444;6.484;2023-05-19T04:51:04;43.90;;;8.93;;
3843;SDS011;1937;51.444;6.484;2023-05-19T04:53:32;41.90;;;9.67;;
3843;SDS011;1937;51.444;6.484;2023-05-19T04:55:59;41.10;;;9.03;;
3843;SDS011;1937;51.444;6.484;2023-05-19T04:58:27;42.53;;;9.77;;
3843;SDS011;1937;51.444;6.484;2023-05-19T05:00:54;47.47;;;8.60;;
3843;SDS011;1937;51.444;6.484;2023-05-19T05:03:21;36.97;;;8.70;;
3843;SDS011;1937;51.444;6.484;2023-05-19T05:05:48;43.07;;;8.60;;
3843;SDS011;1937;51.444;6.484;2023-05-19T05:08:15;43.07;;;9.20;;
3843;SDS011;1937;51.444;6.484;2023-05-19T05:10:48;39.37;;;9.10;;
3843;SDS011;1937;51.444;6.484;2023-05-19T05:13:16;47.43;;;9.13;;
3843;SDS011;1937;51.444;6.484;2023-05-19T05:15:44;49.93;;;9.23;;
3843;SDS011;1937;51.444;6.484;2023-05-19T05:18:11;41.53;;;10.30;;
3843;SDS011;1937;51.444;6.484;2023-05-19T05:20:39;48.40;;;8.60;;
3843;SDS011;1937;51.444;6.484;2023-05-19T05:23:07;39.40;;;8.40;;
3843;SDS011;1937;51.444;6.484;2023-05-19T05:25:38;40.43;;;9.13;;
3843;SDS011;1937;51.444;6.484;2023-05-19T05:28:07;43.57;;;9.20;;
3843;SDS011;1937;51.444;6.484;2023-05-19T05:30:34;47.27;;;10.10;;
3843;SDS011;1937;51.444;6.484;2023-05-19T05:33:00;39.70;;;8.20;;
3843;SDS011;1937;51.444;6.484;2023-05-19T05:35:27;41.57;;;9.07;;
3843;SDS011;1937;51.444;6.484;2023-05-19T05:37:54;42.67;;;9.87;;
3843;SDS011;1937;51.444;6.484;2023-05-19T05:40:21;41.43;;;9.30;;
3843;SDS011;1937;51.444;6.484;2023-05-19T05:42:48;39.57;;;8.43;;
3843;SDS011;1937;51.444;6.484;2023-05-19T05:45:16;44.13;;;10.07;;
3843;SDS011;1937;51.444;6.484;2023-05-19T05:47:43;40.63;;;9.50;;
3843;SDS011;1937;51.444;6.484;2023-05-19T05:50:11;46.97;;;9.03;;
3843;SDS011;1937;51.444;6.484;2023-05-19T05:52:38;37.73;;;8.63;;
3843;SDS011;1937;51.444;6.484;2023-05-19T05:55:07;48.17;;;11.67;;
3843;SDS011;1937;51.444;6.484;2023-05-19T05:57:35;36.13;;;9.60;;
3843;SDS011;1937;51.444;6.484;2023-05-19T06:00:01;49.77;;;9.57;;
3843;SDS011;1937;51.444;6.484;2023-05-19T06:02:33;41.73;;;10.50;;
3843;SDS011;1937;51.444;6.484;2023-05-19T06:05:00;47.33;;;11.53;;
3843;SDS011;1937;51.444;6.484;2023-05-19T06:07:27;37.50;;;8.70;;
3843;SDS011;1937;51.444;6.484;2023-05-19T06:09:54;39.43;;;10.43;;
3843;SDS011;1937;51.444;6.484;2023-05-19T06:12:20;40.40;;;10.43;;
3843;SDS011;1937;51.444;6.484;2023-05-19T06:14:48;39.33;;;9.50;;
3843;SDS011;1937;51.444;6.484;2023-05-19T06:17:16;43.53;;;10.93;;
3843;SDS011;1937;51.444;6.484;2023-05-19T06:19:43;46.00;;;11.00;;
3843;SDS011;1937;51.444;6.484;2023-05-19T06:22:10;44.40;;;11.63;;
3843;SDS011;1937;51.444;6.484;2023-05-19T06:24:40;46.33;;;10.13;;
3843;SDS011;1937;51.444;6.484;2023-05-19T06:27:06;41.30;;;10.23;;
3843;SDS011;1937;51.444;6.484;2023-05-19T06:29:33;38.40;;;10.30;;
3843;SDS011;1937;51.444;6.484;2023-05-19T06:32:00;39.27;;;9.70;;
3843;SDS011;1937;51.444;6.484;2023-05-19T06:34:26;40.07;;;10.10;;
3843;SDS011;1937;51.444;6.484;2023-05-19T06:36:54;43.43;;;10.63;;
3843;SDS011;1937;51.444;6.484;2023-05-19T06:39:21;37.87;;;11.17;;
3843;SDS011;1937;51.444;6.484;2023-05-19T06:41:48;34.87;;;9.67;;
3843;SDS011;1937;51.444;6.484;2023-05-19T06:44:15;36.80;;;10.63;;
3843;SDS011;1937;51.444;6.484;2023-05-19T06:46:42;37.63;;;10.20;;
3843;SDS011;1937;51.444;6.484;2023-05-19T06:49:09;44.93;;;10.33;;
3843;SDS011;1937;51.444;6.484;2023-05-19T06:51:35;36.80;;;9.83;;
3843;SDS011;1937;51.444;6.484;2023-05-19T06:54:03;37.70;;;9.70;;
3843;SDS011;1937;51.444;6.484;2023-05-19T06:56:30;36.73;;;10.60;;
3843;SDS011;1937;51.444;6.484;2023-05-19T06:58:57;31.80;;;8.30;;
3843;SDS011;1937;51.444;6.484;2023-05-19T07:01:23;33.07;;;9.30;;
3843;SDS011;1937;51.444;6.484;2023-05-19T07:03:51;39.73;;;10.13;;
3843;SDS011;1937;51.444;6.484;2023-05-19T07:06:18;40.20;;;9.60;;
3843;SDS011;1937;51.444;6.484;2023-05-19T07:08:45;33.33;;;9.23;;
3843;SDS011;1937;51.444;6.484;2023-05-19T07:11:13;32.83;;;8.10;;
3843;SDS011;1937;51.444;6.484;2023-05-19T07:13:40;40.90;;;10.30;;
3843;SDS011;1937;51.444;6.484;2023-05-19T07:16:06;34.07;;;10.50;;
3843;SDS011;1937;51.444;6.484;2023-05-19T07:18:33;32.90;;;9.30;;
3843;SDS011;1937;51.444;6.484;2023-05-19T07:20:59;35.80;;;9.13;;
3843;SDS011;1937;51.444;6.484;2023-05-19T07:23:26;32.30;;;7.73;;
3843;SDS011;1937;51.444;6.484;2023-05-19T07:25:53;32.77;;;9.10;;
3843;SDS011;1937;51.444;6.484;2023-05-19T07:28:23;33.00;;;8.20;;
3843;SDS011;1937;51.444;6.484;2023-05-19T07:30:49;35.60;;;9.23;;
3843;SDS011;1937;51.444;6.484;2023-05-19T07:33:17;34.90;;;9.60;;
3843;SDS011;1937;51.444;6.484;2023-05-19T07:35:43;43.83;;;12.67;;
3843;SDS011;1937;51.444;6.484;2023-05-19T07:38:10;53.00;;;17.80;;
3843;SDS011;1937;51.444;6.484;2023-05-19T07:40:37;46.60;;;15.20;;
3843;SDS011;1937;51.444;6.484;2023-05-19T07:43:07;43.63;;;16.70;;
3843;SDS011;1937;51.444;6.484;2023-05-19T07:45:36;46.57;;;12.30;;
3843;SDS011;1937;51.444;6.484;2023-05-19T07:48:03;40.90;;;11.47;;
3843;SDS011;1937;51.444;6.484;2023-05-19T07:50:30;43.10;;;13.07;;
3843;SDS011;1937;51.444;6.484;2023-05-19T07:52:59;47.57;;;14.97;;
3843;SDS011;1937;51.444;6.484;2023-05-19T07:55:26;43.03;;;16.30;;
3843;SDS011;1937;51.444;6.484;2023-05-19T07:57:52;48.33;;;17.77;;
3843;SDS011;1937;51.444;6.484;2023-05-19T08:00:20;57.10;;;19.33;;
3843;SDS011;1937;51.444;6.484;2023-05-19T08:02:48;51.70;;;18.50;;
3843;SDS011;1937;51.444;6.484;2023-05-19T08:05:16;52.70;;;21.30;;
3843;SDS011;1937;51.444;6.484;2023-05-19T08:07:43;55.80;;;21.67;;
3843;SDS011;1937;51.444;6.484;2023-05-19T08:10:13;54.70;;;17.70;;
3843;SDS011;1937;51.444;6.484;2023-05-19T08:12:40;53.53;;;21.33;;
3843;SDS011;1937;51.444;6.484;2023-05-19T08:15:08;52.20;;;17.20;;
3843;SDS011;1937;51.444;6.484;2023-05-19T08:17:35;59.23;;;19.53;;
3843;SDS011;1937;51.444;6.484;2023-05-19T08:20:04;54.53;;;22.40;;
3843;SDS011;1937;51.444;6.484;2023-05-19T08:22:32;55.97;;;22.90;;
3843;SDS011;1937;51.444;6.484;2023-05-19T08:24:59;56.37;;;28.30;;
3843;SDS011;1937;51.444;6.484;2023-05-19T08:27:26;54.50;;;20.67;;
3843;SDS011;1937;51.444;6.484;2023-05-19T08:29:52;48.17;;;15.20;;
3843;SDS011;1937;51.444;6.484;2023-05-19T08:32:19;56.43;;;18.00;;
3843;SDS011;1937;51.444;6.484;2023-05-19T08:34:46;52.10;;;17.73;;
3843;SDS011;1937;51.444;6.484;2023-05-19T08:37:14;52.50;;;21.00;;
3843;SDS011;1937;51.444;6.484;2023-05-19T08:39:40;58.20;;;28.53;;
3843;SDS011;1937;51.444;6.484;2023-05-19T08:42:07;57.20;;;25.90;;
3843;SDS011;1937;51.444;6.484;2023-05-19T08:44:34;55.53;;;26.17;;
3843;SDS011;1937;51.444;6.484;2023-05-19T08:47:02;58.07;;;28.20;;
3843;SDS011;1937;51.444;6.484;2023-05-19T08:49:31;54.43;;;23.40;;
3843;SDS011;1937;51.444;6.484;2023-05-19T08:52:02;59.70;;;21.30;;
3843;SDS011;1937;51.444;6.484;2023-05-19T08:54:36;62.90;;;32.20;;
3843;SDS011;1937;51.444;6.484;2023-05-19T08:57:08;69.80;;;50.17;;
3843;SDS011;1937;51.444;6.484;2023-05-19T08:59:36;67.20;;;39.30;;
3843;SDS011;1937;51.444;6.484;2023-05-19T09:02:03;56.10;;;28.60;;
3843;SDS011;1937;51.444;6.484;2023-05-19T09:04:30;57.93;;;25.40;;
3843;SDS011;1937;51.444;6.484;2023-05-19T09:06:57;54.33;;;28.57;;
3843;SDS011;1937;51.444;6.484;2023-05-19T09:09:28;55.13;;;23.43;;
3843;SDS011;1937;51.444;6.484;2023-05-19T09:11:56;53.20;;;22.53;;
3843;SDS011;1937;51.444;6.484;2023-05-19T09:14:23;59.63;;;24.53;;
3843;SDS011;1937;51.444;6.484;2023-05-19T09:16:49;66.97;;;38.97;;
3843;SDS011;1937;51.444;6.484;2023-05-19T09:19:17;59.47;;;28.03;;
3843;SDS011;1937;51.444;6.484;2023-05-19T09:21:44;57.47;;;30.97;;
3843;SDS011;1937;51.444;6.484;2023-05-19T09:24:11;69.60;;;25.53;;
3843;SDS011;1937;51.444;6.484;2023-05-19T09:26:38;63.33;;;21.83;;
3843;SDS011;1937;51.444;6.484;2023-05-19T09:29:22;62.17;;;31.27;;
3843;SDS011;1937;51.444;6.484;2023-05-19T09:31:49;62.70;;;30.00;;
3843;SDS011;1937;51.444;6.484;2023-05-19T09:34:16;75.10;;;60.17;;
3843;SDS011;1937;51.444;6.484;2023-05-19T09:36:43;61.33;;;33.80;;
3843;SDS011;1937;51.444;6.484;2023-05-19T09:39:13;61.00;;;27.00;;
3843;SDS011;1937;51.444;6.484;2023-05-19T09:41:40;64.70;;;29.80;;
3843;SDS011;1937;51.444;6.484;2023-05-19T09:44:08;68.17;;;45.13;;
3843;SDS011;1937;51.444;6.484;2023-05-19T09:46:46;60.83;;;33.03;;
3843;SDS011;1937;51.444;6.484;2023-05-19T09:49:17;62.87;;;29.00;;
3843;SDS011;1937;51.444;6.484;2023-05-19T09:51:47;61.80;;;41.50;;
3843;SDS011;1937;51.444;6.484;2023-05-19T09:54:14;60.10;;;30.77;;
3843;SDS011;1937;51.444;6.484;2023-05-19T09:56:41;61.70;;;27.27;;
3843;SDS011;1937;51.444;6.484;2023-05-19T09:59:08;60.20;;;24.57;;
3843;SDS011;1937;51.444;6.484;2023-05-19T10:01:36;70.43;;;32.73;;
3843;SDS011;1937;51.444;6.484;2023-05-19T10:04:05;63.60;;;32.23;;
3843;SDS011;1937;51.444;6.484;2023-05-19T10:06:32;59.70;;;33.03;;
3843;SDS011;1937;51.444;6.484;2023-05-19T10:08:59;68.00;;;33.03;;
3843;SDS011;1937;51.444;6.484;2023-05-19T10:11:26;64.77;;;40.00;;
3843;SDS011;1937;51.444;6.484;2023-05-19T10:13:55;65.93;;;27.93;;
3843;SDS011;1937;51.444;6.484;2023-05-19T10:16:23;57.93;;;27.43;;
3843;SDS011;1937;51.444;6.484;2023-05-19T10:18:53;58.53;;;24.03;;
3843;SDS011;1937;51.444;6.484;2023-05-19T10:21:20;67.80;;;26.00;;
3843;SDS011;1937;51.444;6.484;2023-05-19T10:23:47;62.73;;;27.40;;
3843;SDS011;1937;51.444;6.484;2023-05-19T10:26:14;64.53;;;31.77;;
3843;SDS011;1937;51.444;6.484;2023-05-19T10:28:41;62.03;;;30.87;;
3843;SDS011;1937;51.444;6.484;2023-05-19T10:31:11;58.90;;;23.73;;
3843;SDS011;1937;51.444;6.484;2023-05-19T10:33:48;66.13;;;36.13;;
3843;SDS011;1937;51.444;6.484;2023-05-19T10:36:31;60.20;;;26.03;;
3843;SDS011;1937;51.444;6.484;2023-05-19T10:39:10;59.30;;;31.43;;
3843;SDS011;1937;51.444;6.484;2023-05-19T10:41:45;56.23;;;29.30;;
3843;SDS011;1937;51.444;6.484;2023-05-19T10:44:19;55.87;;;26.17;;
3843;SDS011;1937;51.444;6.484;2023-05-19T10:46:59;51.83;;;20.57;;
3843;SDS011;1937;51.444;6.484;2023-05-19T10:49:27;58.90;;;31.83;;
3843;SDS011;1937;51.444;6.484;2023-05-19T10:51:54;58.03;;;24.10;;
3843;SDS011;1937;51.444;6.484;2023-05-19T10:57:07;57.80;;;30.43;;
3843;SDS011;1937;51.444;6.484;2023-05-19T10:59:34;58.07;;;28.37;;
3843;SDS011;1937;51.444;6.484;2023-05-19T11:02:03;55.77;;;24.80;;
3843;SDS011;1937;51.444;6.484;2023-05-19T11:04:46;58.53;;;23.07;;
3843;SDS011;1937;51.444;6.484;2023-05-19T11:07:16;59.70;;;26.10;;
3843;SDS011;1937;51.444;6.484;2023-05-19T11:09:46;63.77;;;37.97;;
3843;SDS011;1937;51.444;6.484;2023-05-19T11:12:18;56.13;;;23.47;;
3843;SDS011;1937;51.444;6.484;2023-05-19T11:14:45;60.20;;;24.10;;
3843;SDS011;1937;51.444;6.484;2023-05-19T11:17:13;66.60;;;28.40;;
3843;SDS011;1937;51.444;6.484;2023-05-19T11:19:51;59.80;;;29.13;;
3843;SDS011;1937;51.444;6.484;2023-05-19T11:22:21;63.90;;;25.80;;
3843;SDS011;1937;51.444;6.484;2023-05-19T11:24:49;61.80;;;30.97;;
3843;SDS011;1937;51.444;6.484;2023-05-19T11:27:21;59.97;;;28.53;;
3843;SDS011;1937;51.444;6.484;2023-05-19T11:29:50;60.47;;;31.57;;
3843;SDS011;1937;51.444;6.484;2023-05-19T11:32:18;60.80;;;31.23;;
3843;SDS011;1937;51.444;6.484;2023-05-19T11:34:46;56.40;;;27.13;;
3843;SDS011;1937;51.444;6.484;2023-05-19T11:37:15;62.90;;;31.00;;
3843;SDS011;1937;51.444;6.484;2023-05-19T11:39:42;58.33;;;28.17;;
3843;SDS011;1937;51.444;6.484;2023-05-19T11:42:10;57.30;;;29.20;;
3843;SDS011;1937;51.444;6.484;2023-05-19T11:44:37;60.03;;;23.53;;
3843;SDS011;1937;51.444;6.484;2023-05-19T11:47:05;61.67;;;28.30;;
3843;SDS011;1937;51.444;6.484;2023-05-19T11:49:31;57.40;;;24.70;;
3843;SDS011;1937;51.444;6.484;2023-05-19T11:51:58;65.40;;;29.73;;
3843;SDS011;1937;51.444;6.484;2023-05-19T11:54:29;67.80;;;26.93;;
3843;SDS011;1937;51.444;6.484;2023-05-19T11:56:58;54.93;;;23.73;;
3843;SDS011;1937;51.444;6.484;2023-05-19T11:59:29;61.50;;;28.30;;
3843;SDS011;1937;51.444;6.484;2023-05-19T12:01:59;62.03;;;27.23;;
3843;SDS011;1937;51.444;6.484;2023-05-19T12:04:27;58.00;;;26.47;;
3843;SDS011;1937;51.444;6.484;2023-05-19T12:06:53;66.47;;;36.67;;
3843;SDS011;1937;51.444;6.484;2023-05-19T12:09:21;63.03;;;36.23;;
3843;SDS011;1937;51.444;6.484;2023-05-19T12:11:49;61.20;;;30.60;;
3843;SDS011;1937;51.444;6.484;2023-05-19T12:14:17;61.63;;;33.80;;
3843;SDS011;1937;51.444;6.484;2023-05-19T12:16:43;65.57;;;34.70;;
3843;SDS011;1937;51.444;6.484;2023-05-19T12:19:10;64.50;;;31.83;;
3843;SDS011;1937;51.444;6.484;2023-05-19T12:21:37;67.53;;;29.77;;
3843;SDS011;1937;51.444;6.484;2023-05-19T12:24:04;60.60;;;26.63;;
3843;SDS011;1937;51.444;6.484;2023-05-19T12:26:31;66.10;;;33.27;;
3843;SDS011;1937;51.444;6.484;2023-05-19T12:29:00;66.57;;;43.77;;
3843;SDS011;1937;51.444;6.484;2023-05-19T12:31:26;63.30;;;34.37;;
3843;SDS011;1937;51.444;6.484;2023-05-19T12:33:54;63.90;;;32.07;;
3843;SDS011;1937;51.444;6.484;2023-05-19T12:36:22;67.03;;;43.03;;
3843;SDS011;1937;51.444;6.484;2023-05-19T12:38:52;60.23;;;31.37;;
3843;SDS011;1937;51.444;6.484;2023-05-19T12:41:19;68.50;;;40.50;;
3843;SDS011;1937;51.444;6.484;2023-05-19T12:43:46;65.17;;;39.50;;
3843;SDS011;1937;51.444;6.484;2023-05-19T12:46:17;66.17;;;34.50;;
3843;SDS011;1937;51.444;6.484;2023-05-19T12:48:44;63.50;;;40.10;;
3843;SDS011;1937;51.444;6.484;2023-05-19T12:51:14;61.07;;;34.80;;
3843;SDS011;1937;51.444;6.484;2023-05-19T12:53:42;69.40;;;36.20;;
3843;SDS011;1937;51.444;6.484;2023-05-19T12:56:09;65.30;;;36.87;;
3843;SDS011;1937;51.444;6.484;2023-05-19T12:58:38;66.53;;;42.83;;
3843;SDS011;1937;51.444;6.484;2023-05-19T13:01:05;64.10;;;29.40;;
3843;SDS011;1937;51.444;6.484;2023-05-19T13:03:39;64.50;;;33.57;;
3843;SDS011;1937;51.444;6.484;2023-05-19T13:06:07;65.07;;;33.17;;
3843;SDS011;1937;51.444;6.484;2023-05-19T13:08:35;74.43;;;35.90;;
3843;SDS011;1937;51.444;6.484;2023-05-19T13:11:02;82.73;;;69.83;;
3843;SDS011;1937;51.444;6.484;2023-05-19T13:13:29;67.67;;;38.80;;
3843;SDS011;1937;51.444;6.484;2023-05-19T13:15:55;65.10;;;35.90;;
3843;SDS011;1937;51.444;6.484;2023-05-19T13:18:22;67.30;;;42.37;;
3843;SDS011;1937;51.444;6.484;2023-05-19T13:20:50;70.53;;;44.67;;
3843;SDS011;1937;51.444;6.484;2023-05-19T13:23:17;68.43;;;41.47;;
3843;SDS011;1937;51.444;6.484;2023-05-19T13:25:43;72.50;;;54.90;;
3843;SDS011;1937;51.444;6.484;2023-05-19T13:28:10;73.43;;;56.47;;
3843;SDS011;1937;51.444;6.484;2023-05-19T13:30:40;71.53;;;47.17;;
3843;SDS011;1937;51.444;6.484;2023-05-19T13:33:09;81.53;;;65.03;;
3843;SDS011;1937;51.444;6.484;2023-05-19T13:35:35;75.23;;;46.37;;
3843;SDS011;1937;51.444;6.484;2023-05-19T13:38:04;69.23;;;44.13;;
3843;SDS011;1937;51.444;6.484;2023-05-19T13:40:31;65.60;;;40.90;;
3843;SDS011;1937;51.444;6.484;2023-05-19T13:42:58;67.43;;;42.63;;
3843;SDS011;1937;51.444;6.484;2023-05-19T13:45:26;64.27;;;36.70;;
3843;SDS011;1937;51.444;6.484;2023-05-19T13:47:52;75.70;;;61.80;;
3843;SDS011;1937;51.444;6.484;2023-05-19T13:50:19;62.43;;;33.40;;
3843;SDS011;1937;51.444;6.484;2023-05-19T13:52:46;65.10;;;36.70;;
3843;SDS011;1937;51.444;6.484;2023-05-19T13:55:14;66.07;;;38.73;;
3843;SDS011;1937;51.444;6.484;2023-05-19T13:57:41;67.30;;;38.83;;
3843;SDS011;1937;51.444;6.484;2023-05-19T14:00:08;62.60;;;36.27;;
3843;SDS011;1937;51.444;6.484;2023-05-19T14:02:35;63.83;;;38.57;;
3843;SDS011;1937;51.444;6.484;2023-05-19T14:05:03;63.73;;;36.00;;
3843;SDS011;1937;51.444;6.484;2023-05-19T14:07:31;61.23;;;31.93;;
3843;SDS011;1937;51.444;6.484;2023-05-19T14:09:58;63.23;;;32.30;;
3843;SDS011;1937;51.444;6.484;2023-05-19T14:12:26;62.47;;;31.50;;
3843;SDS011;1937;51.444;6.484;2023-05-19T14:14:53;58.87;;;27.97;;
3843;SDS011;1937;51.444;6.484;2023-05-19T14:17:20;59.40;;;33.53;;
3843;SDS011;1937;51.444;6.484;2023-05-19T14:19:46;54.40;;;23.27;;
3843;SDS011;1937;51.444;6.484;2023-05-19T14:22:14;57.80;;;28.10;;
3843;SDS011;1937;51.444;6.484;2023-05-19T14:24:42;59.73;;;29.23;;
3843;SDS011;1937;51.444;6.484;2023-05-19T14:27:08;57.27;;;25.57;;
3843;SDS011;1937;51.444;6.484;2023-05-19T14:29:36;58.40;;;32.20;;
3843;SDS011;1937;51.444;6.484;2023-05-19T14:32:03;52.57;;;21.23;;
3843;SDS011;1937;51.444;6.484;2023-05-19T14:34:30;56.30;;;23.97;;
3843;SDS011;1937;51.444;6.484;2023-05-19T14:36:59;58.03;;;27.87;;
3843;SDS011;1937;51.444;6.484;2023-05-19T14:39:26;55.17;;;26.10;;
3843;SDS011;1937;51.444;6.484;2023-05-19T14:41:52;55.97;;;22.57;;
3843;SDS011;1937;51.444;6.484;2023-05-19T14:44:20;53.60;;;21.53;;
3843;SDS011;1937;51.444;6.484;2023-05-19T14:46:48;59.20;;;23.83;;
3843;SDS011;1937;51.444;6.484;2023-05-19T14:49:14;61.10;;;24.10;;
3843;SDS011;1937;51.444;6.484;2023-05-19T14:51:41;59.13;;;28.53;;
3843;SDS011;1937;51.444;6.484;2023-05-19T14:54:08;56.50;;;28.63;;
3843;SDS011;1937;51.444;6.484;2023-05-19T14:56:34;53.30;;;19.47;;
3843;SDS011;1937;51.444;6.484;2023-05-19T14:59:01;53.33;;;17.70;;
3843;SDS011;1937;51.444;6.484;2023-05-19T15:01:28;52.90;;;26.80;;